sensor_id;sensor_type;location;lat;lon;timestamp;P1;durP1;ratioP1;P2;durP2;ratioP2
43803;SDS011;29430;52.924;-2.388;2023-09-19T00:00:43;7.22;;;0.40;;
43803;SDS011;29430;52.924;-2.388;2023-09-19T00:05:36;6.65;;;0.43;;
43803;SDS011;29430;52.924;-2.388;2023-09-19T00:10:36;8.77;;;0.40;;
43803;SDS011;29430;52.924;-2.388;2023-09-19T00:15:28;7.00;;;0.60;;
43803;SDS011;29430;52.924;-2.388;2023-09-19T00:20:20;5.47;;;0.40;;
43803;SDS011;29430;52.924;-2.388;2023-09-19T00:25:14;11.90;;;1.27;;
43803;SDS011;29430;52.924;-2.388;2023-09-19T00:30:07;5.50;;;0.50;;
43803;SDS011;29430;52.924;-2.388;2023-09-19T00:35:05;9.98;;;0.80;;
43803;SDS011;29430;52.924;-2.388;2023-09-19T00:39:57;9.57;;;1.13;;
43803;SDS011;29430;52.924;-2.388;2023-09-19T00:44:49;11.77;;;0.57;;
43803;SDS011;29430;52.924;-2.388;2023-09-19T00:49:43;6.07;;;0.85;;
43803;SDS011;29430;52.924;-2.388;2023-09-19T00:54:36;8.23;;;0.80;;
43803;SDS011;29430;52.924;-2.388;2023-09-19T00:59:28;5.03;;;0.60;;
43803;SDS011;29430;52.924;-2.388;2023-09-19T01:04:21;7.07;;;0.65;;
43803;SDS011;29430;52.924;-2.388;2023-09-19T01:09:14;5.88;;;0.82;;
43803;SDS011;29430;52.924;-2.388;2023-09-19T01:29:45;11.57;;;0.68;;
43803;SDS011;29430;52.924;-2.388;2023-09-19T01:39:57;7.60;;;0.50;;
43803;SDS011;29430;52.924;-2.388;2023-09-19T01:45:03;9.80;;;0.60;;
43803;SDS011;29430;52.924;-2.388;2023-09-19T01:50:07;8.38;;;0.98;;
43803;SDS011;29430;52.924;-2.388;2023-09-19T01:55:23;7.10;;;0.60;;
43803;SDS011;29430;52.924;-2.388;2023-09-19T02:00:20;5.35;;;0.50;;
43803;SDS011;29430;52.924;-2.388;2023-09-19T02:05:21;6.97;;;0.57;;
43803;SDS011;29430;52.924;-2.388;2023-09-19T02:10:15;6.22;;;0.60;;
43803;SDS011;29430;52.924;-2.388;2023-09-19T02:15:08;11.88;;;0.90;;
43803;SDS011;29430;52.924;-2.388;2023-09-19T02:20:00;9.50;;;0.77;;
43803;SDS011;29430;52.924;-2.388;2023-09-19T02:24:53;11.63;;;0.73;;
43803;SDS011;29430;52.924;-2.388;2023-09-19T02:29:45;7.53;;;0.65;;
43803;SDS011;29430;52.924;-2.388;2023-09-19T02:34:36;9.27;;;0.60;;
43803;SDS011;29430;52.924;-2.388;2023-09-19T02:39:30;7.68;;;0.73;;
43803;SDS011;29430;52.924;-2.388;2023-09-19T02:44:23;12.18;;;1.02;;
43803;SDS011;29430;52.924;-2.388;2023-09-19T02:49:15;8.95;;;0.57;;
43803;SDS011;29430;52.924;-2.388;2023-09-19T02:54:07;11.30;;;0.70;;
43803;SDS011;29430;52.924;-2.388;2023-09-19T02:58:59;6.00;;;0.50;;
43803;SDS011;29430;52.924;-2.388;2023-09-19T03:03:52;5.93;;;0.57;;
43803;SDS011;29430;52.924;-2.388;2023-09-19T03:08:44;6.43;;;0.55;;
43803;SDS011;29430;52.924;-2.388;2023-09-19T03:13:38;9.02;;;0.73;;
43803;SDS011;29430;52.924;-2.388;2023-09-19T03:18:30;8.98;;;0.70;;
43803;SDS011;29430;52.924;-2.388;2023-09-19T03:23:23;6.95;;;0.60;;
43803;SDS011;29430;52.924;-2.388;2023-09-19T03:28:15;10.00;;;0.60;;
43803;SDS011;29430;52.924;-2.388;2023-09-19T03:33:07;8.25;;;0.57;;
43803;SDS011;29430;52.924;-2.388;2023-09-19T03:37:59;6.07;;;0.60;;
43803;SDS011;29430;52.924;-2.388;2023-09-19T03:42:51;10.13;;;0.65;;
43803;SDS011;29430;52.924;-2.388;2023-09-19T03:47:43;11.45;;;0.55;;
43803;SDS011;29430;52.924;-2.388;2023-09-19T03:52:34;8.98;;;0.70;;
43803;SDS011;29430;52.924;-2.388;2023-09-19T03:57:26;7.50;;;0.57;;
43803;SDS011;29430;52.924;-2.388;2023-09-19T04:02:18;10.18;;;0.70;;
43803;SDS011;29430;52.924;-2.388;2023-09-19T04:07:14;7.20;;;0.60;;
43803;SDS011;29430;52.924;-2.388;2023-09-19T04:12:07;10.13;;;0.50;;
43803;SDS011;29430;52.924;-2.388;2023-09-19T04:17:00;8.30;;;0.70;;
43803;SDS011;29430;52.924;-2.388;2023-09-19T04:21:52;10.73;;;0.70;;
43803;SDS011;29430;52.924;-2.388;2023-09-19T04:26:43;8.05;;;0.47;;
43803;SDS011;29430;52.924;-2.388;2023-09-19T04:31:35;8.98;;;0.55;;
43803;SDS011;29430;52.924;-2.388;2023-09-19T04:36:28;9.88;;;0.60;;
43803;SDS011;29430;52.924;-2.388;2023-09-19T04:41:26;11.13;;;0.60;;
43803;SDS011;29430;52.924;-2.388;2023-09-19T04:46:18;11.90;;;0.70;;
43803;SDS011;29430;52.924;-2.388;2023-09-19T04:51:10;6.28;;;0.60;;
43803;SDS011;29430;52.924;-2.388;2023-09-19T04:56:02;8.23;;;0.80;;
43803;SDS011;29430;52.924;-2.388;2023-09-19T05:00:54;11.13;;;1.00;;
43803;SDS011;29430;52.924;-2.388;2023-09-19T05:05:47;9.57;;;0.77;;
43803;SDS011;29430;52.924;-2.388;2023-09-19T05:10:39;8.10;;;0.57;;
43803;SDS011;29430;52.924;-2.388;2023-09-19T05:15:31;9.32;;;0.98;;
43803;SDS011;29430;52.924;-2.388;2023-09-19T05:20:22;8.80;;;0.50;;
43803;SDS011;29430;52.924;-2.388;2023-09-19T05:25:30;4.90;;;0.60;;
43803;SDS011;29430;52.924;-2.388;2023-09-19T05:30:23;8.90;;;0.60;;
43803;SDS011;29430;52.924;-2.388;2023-09-19T05:35:16;5.13;;;0.60;;
43803;SDS011;29430;52.924;-2.388;2023-09-19T05:40:07;6.68;;;0.60;;
43803;SDS011;29430;52.924;-2.388;2023-09-19T05:45:00;5.93;;;0.50;;
43803;SDS011;29430;52.924;-2.388;2023-09-19T05:49:52;4.88;;;0.63;;
43803;SDS011;29430;52.924;-2.388;2023-09-19T05:54:44;4.72;;;0.40;;
43803;SDS011;29430;52.924;-2.388;2023-09-19T05:59:36;4.78;;;0.40;;
43803;SDS011;29430;52.924;-2.388;2023-09-19T06:04:28;5.70;;;0.50;;
43803;SDS011;29430;52.924;-2.388;2023-09-19T06:09:22;5.40;;;0.65;;
43803;SDS011;29430;52.924;-2.388;2023-09-19T06:14:14;3.38;;;0.40;;
43803;SDS011;29430;52.924;-2.388;2023-09-19T06:19:09;3.83;;;0.57;;
43803;SDS011;29430;52.924;-2.388;2023-09-19T06:24:01;4.13;;;0.60;;
43803;SDS011;29430;52.924;-2.388;2023-09-19T06:28:54;6.18;;;0.80;;
43803;SDS011;29430;52.924;-2.388;2023-09-19T06:33:47;7.60;;;0.60;;
43803;SDS011;29430;52.924;-2.388;2023-09-19T06:38:39;7.07;;;0.52;;
43803;SDS011;29430;52.924;-2.388;2023-09-19T06:43:31;4.07;;;0.80;;
43803;SDS011;29430;52.924;-2.388;2023-09-19T06:48:25;4.07;;;0.70;;
43803;SDS011;29430;52.924;-2.388;2023-09-19T06:53:17;7.13;;;1.15;;
43803;SDS011;29430;52.924;-2.388;2023-09-19T06:58:09;5.65;;;0.80;;
43803;SDS011;29430;52.924;-2.388;2023-09-19T07:03:06;10.60;;;1.20;;
43803;SDS011;29430;52.924;-2.388;2023-09-19T07:07:59;7.63;;;1.23;;
43803;SDS011;29430;52.924;-2.388;2023-09-19T07:12:56;6.05;;;0.90;;
43803;SDS011;29430;52.924;-2.388;2023-09-19T07:17:57;5.82;;;1.10;;
43803;SDS011;29430;52.924;-2.388;2023-09-19T07:22:49;3.42;;;0.60;;
43803;SDS011;29430;52.924;-2.388;2023-09-19T07:27:42;10.02;;;0.73;;
43803;SDS011;29430;52.924;-2.388;2023-09-19T07:32:34;6.57;;;0.50;;
43803;SDS011;29430;52.924;-2.388;2023-09-19T07:37:30;4.63;;;0.80;;
43803;SDS011;29430;52.924;-2.388;2023-09-19T07:42:24;3.05;;;0.40;;
43803;SDS011;29430;52.924;-2.388;2023-09-19T07:47:17;4.53;;;0.57;;
43803;SDS011;29430;52.924;-2.388;2023-09-19T07:52:08;1.48;;;0.40;;
43803;SDS011;29430;52.924;-2.388;2023-09-19T07:57:01;2.75;;;0.40;;
43803;SDS011;29430;52.924;-2.388;2023-09-19T08:01:53;1.60;;;0.30;;
43803;SDS011;29430;52.924;-2.388;2023-09-19T08:06:45;4.57;;;0.32;;
43803;SDS011;29430;52.924;-2.388;2023-09-19T08:11:37;2.83;;;0.30;;
43803;SDS011;29430;52.924;-2.388;2023-09-19T08:16:28;3.83;;;0.40;;
43803;SDS011;29430;52.924;-2.388;2023-09-19T08:21:23;2.47;;;0.40;;
43803;SDS011;29430;52.924;-2.388;2023-09-19T08:26:15;2.47;;;0.40;;
43803;SDS011;29430;52.924;-2.388;2023-09-19T08:31:08;2.03;;;0.30;;
43803;SDS011;29430;52.924;-2.388;2023-09-19T08:36:01;2.58;;;0.20;;
43803;SDS011;29430;52.924;-2.388;2023-09-19T08:40:59;2.15;;;0.10;;
43803;SDS011;29430;52.924;-2.388;2023-09-19T08:46:14;0.68;;;0.10;;
43803;SDS011;29430;52.924;-2.388;2023-09-19T08:51:07;1.83;;;0.10;;
43803;SDS011;29430;52.924;-2.388;2023-09-19T08:56:01;0.80;;;0.10;;
43803;SDS011;29430;52.924;-2.388;2023-09-19T09:00:59;1.20;;;0.10;;
43803;SDS011;29430;52.924;-2.388;2023-09-19T09:05:53;0.70;;;0.00;;
43803;SDS011;29430;52.924;-2.388;2023-09-19T09:10:45;1.70;;;0.00;;
43803;SDS011;29430;52.924;-2.388;2023-09-19T09:15:37;0.40;;;0.00;;
43803;SDS011;29430;52.924;-2.388;2023-09-19T09:20:29;0.45;;;0.00;;
43803;SDS011;29430;52.924;-2.388;2023-09-19T09:25:21;0.93;;;0.00;;
43803;SDS011;29430;52.924;-2.388;2023-09-19T09:30:32;0.85;;;0.00;;
43803;SDS011;29430;52.924;-2.388;2023-09-19T09:35:25;0.00;;;0.00;;
43803;SDS011;29430;52.924;-2.388;2023-09-19T09:40:17;2.78;;;0.00;;
43803;SDS011;29430;52.924;-2.388;2023-09-19T09:50:04;0.20;;;0.00;;
43803;SDS011;29430;52.924;-2.388;2023-09-19T09:55:08;0.65;;;0.00;;
43803;SDS011;29430;52.924;-2.388;2023-09-19T10:00:01;1.45;;;0.00;;
43803;SDS011;29430;52.924;-2.388;2023-09-19T10:15:16;0.10;;;0.00;;
43803;SDS011;29430;52.924;-2.388;2023-09-19T10:20:12;0.10;;;0.00;;
43803;SDS011;29430;52.924;-2.388;2023-09-19T10:25:15;0.55;;;0.00;;
43803;SDS011;29430;52.924;-2.388;2023-09-19T10:30:11;0.47;;;0.15;;
43803;SDS011;29430;52.924;-2.388;2023-09-19T10:35:04;1.27;;;0.10;;
43803;SDS011;29430;52.924;-2.388;2023-09-19T10:39:58;0.10;;;0.00;;
43803;SDS011;29430;52.924;-2.388;2023-09-19T10:44:51;0.13;;;0.03;;
43803;SDS011;29430;52.924;-2.388;2023-09-19T10:49:46;0.13;;;0.00;;
43803;SDS011;29430;52.924;-2.388;2023-09-19T10:54:38;2.33;;;0.10;;
43803;SDS011;29430;52.924;-2.388;2023-09-19T10:59:37;2.40;;;0.00;;
43803;SDS011;29430;52.924;-2.388;2023-09-19T11:05:12;0.10;;;0.00;;
43803;SDS011;29430;52.924;-2.388;2023-09-19T11:10:04;0.10;;;0.00;;
43803;SDS011;29430;52.924;-2.388;2023-09-19T11:15:00;0.10;;;0.00;;
43803;SDS011;29430;52.924;-2.388;2023-09-19T11:25:40;0.13;;;0.00;;
43803;SDS011;29430;52.924;-2.388;2023-09-19T11:35:19;0.28;;;0.00;;
43803;SDS011;29430;52.924;-2.388;2023-09-19T11:40:11;0.10;;;0.00;;
43803;SDS011;29430;52.924;-2.388;2023-09-19T11:45:30;0.10;;;0.00;;
43803;SDS011;29430;52.924;-2.388;2023-09-19T11:50:37;0.17;;;0.00;;
43803;SDS011;29430;52.924;-2.388;2023-09-19T11:55:34;0.10;;;0.00;;
43803;SDS011;29430;52.924;-2.388;2023-09-19T12:00:28;0.10;;;0.00;;
43803;SDS011;29430;52.924;-2.388;2023-09-19T12:05:28;0.10;;;0.00;;
43803;SDS011;29430;52.924;-2.388;2023-09-19T12:10:20;0.00;;;0.00;;
43803;SDS011;29430;52.924;-2.388;2023-09-19T12:15:14;0.28;;;0.00;;
43803;SDS011;29430;52.924;-2.388;2023-09-19T12:20:06;0.88;;;0.00;;
43803;SDS011;29430;52.924;-2.388;2023-09-19T12:25:06;0.85;;;0.00;;
43803;SDS011;29430;52.924;-2.388;2023-09-19T12:29:58;0.30;;;0.00;;
43803;SDS011;29430;52.924;-2.388;2023-09-19T12:35:00;0.40;;;0.00;;
43803;SDS011;29430;52.924;-2.388;2023-09-19T12:40:05;0.80;;;0.08;;
43803;SDS011;29430;52.924;-2.388;2023-09-19T12:45:13;1.38;;;0.10;;
43803;SDS011;29430;52.924;-2.388;2023-09-19T12:50:11;1.13;;;0.40;;
43803;SDS011;29430;52.924;-2.388;2023-09-19T12:55:19;1.05;;;0.20;;
43803;SDS011;29430;52.924;-2.388;2023-09-19T13:16:12;3.55;;;0.28;;
43803;SDS011;29430;52.924;-2.388;2023-09-19T13:21:06;4.63;;;0.25;;
43803;SDS011;29430;52.924;-2.388;2023-09-19T13:26:03;8.38;;;0.30;;
43803;SDS011;29430;52.924;-2.388;2023-09-19T13:30:58;3.95;;;0.30;;
43803;SDS011;29430;52.924;-2.388;2023-09-19T13:35:50;6.68;;;0.50;;
43803;SDS011;29430;52.924;-2.388;2023-09-19T13:40:42;7.28;;;0.30;;
43803;SDS011;29430;52.924;-2.388;2023-09-19T13:45:34;8.93;;;0.73;;
43803;SDS011;29430;52.924;-2.388;2023-09-19T13:50:26;3.65;;;0.40;;
43803;SDS011;29430;52.924;-2.388;2023-09-19T13:55:20;8.30;;;0.60;;
43803;SDS011;29430;52.924;-2.388;2023-09-19T14:00:12;5.97;;;0.50;;
43803;SDS011;29430;52.924;-2.388;2023-09-19T14:05:07;7.40;;;0.50;;
43803;SDS011;29430;52.924;-2.388;2023-09-19T14:09:59;6.80;;;0.85;;
43803;SDS011;29430;52.924;-2.388;2023-09-19T14:14:50;8.23;;;0.90;;
43803;SDS011;29430;52.924;-2.388;2023-09-19T14:19:43;10.35;;;1.10;;
43803;SDS011;29430;52.924;-2.388;2023-09-19T14:24:37;10.98;;;1.10;;
43803;SDS011;29430;52.924;-2.388;2023-09-19T14:29:29;11.25;;;1.52;;
43803;SDS011;29430;52.924;-2.388;2023-09-19T14:34:21;7.20;;;1.20;;
43803;SDS011;29430;52.924;-2.388;2023-09-19T14:39:13;11.93;;;1.60;;
43803;SDS011;29430;52.924;-2.388;2023-09-19T14:44:05;11.38;;;1.70;;
43803;SDS011;29430;52.924;-2.388;2023-09-19T14:48:57;9.48;;;1.60;;
43803;SDS011;29430;52.924;-2.388;2023-09-19T14:53:52;7.28;;;1.90;;
43803;SDS011;29430;52.924;-2.388;2023-09-19T14:58:44;7.25;;;1.00;;
43803;SDS011;29430;52.924;-2.388;2023-09-19T15:03:36;9.35;;;1.40;;
43803;SDS011;29430;52.924;-2.388;2023-09-19T15:08:29;9.27;;;1.52;;
43803;SDS011;29430;52.924;-2.388;2023-09-19T15:13:20;10.30;;;2.75;;
43803;SDS011;29430;52.924;-2.388;2023-09-19T15:18:12;12.38;;;2.75;;
43803;SDS011;29430;52.924;-2.388;2023-09-19T15:23:04;9.15;;;1.48;;
43803;SDS011;29430;52.924;-2.388;2023-09-19T15:27:58;5.90;;;0.95;;
43803;SDS011;29430;52.924;-2.388;2023-09-19T15:32:54;5.93;;;0.60;;
43803;SDS011;29430;52.924;-2.388;2023-09-19T15:37:46;4.25;;;0.50;;
43803;SDS011;29430;52.924;-2.388;2023-09-19T15:42:37;4.68;;;0.40;;
43803;SDS011;29430;52.924;-2.388;2023-09-19T15:47:29;5.53;;;0.50;;
43803;SDS011;29430;52.924;-2.388;2023-09-19T15:52:22;3.50;;;0.40;;
43803;SDS011;29430;52.924;-2.388;2023-09-19T15:57:17;3.75;;;0.20;;
43803;SDS011;29430;52.924;-2.388;2023-09-19T16:02:08;2.20;;;0.20;;
43803;SDS011;29430;52.924;-2.388;2023-09-19T16:07:00;3.22;;;0.30;;
43803;SDS011;29430;52.924;-2.388;2023-09-19T16:11:53;1.58;;;0.20;;
43803;SDS011;29430;52.924;-2.388;2023-09-19T16:16:45;2.42;;;0.30;;
43803;SDS011;29430;52.924;-2.388;2023-09-19T16:21:37;2.67;;;0.25;;
43803;SDS011;29430;52.924;-2.388;2023-09-19T16:26:31;3.17;;;0.40;;
43803;SDS011;29430;52.924;-2.388;2023-09-19T16:31:23;4.95;;;0.30;;
43803;SDS011;29430;52.924;-2.388;2023-09-19T16:36:15;5.65;;;0.40;;
43803;SDS011;29430;52.924;-2.388;2023-09-19T16:41:08;3.90;;;0.40;;
43803;SDS011;29430;52.924;-2.388;2023-09-19T16:46:02;6.05;;;0.80;;
43803;SDS011;29430;52.924;-2.388;2023-09-19T16:51:09;6.35;;;0.65;;
43803;SDS011;29430;52.924;-2.388;2023-09-19T16:56:02;5.40;;;0.50;;
43803;SDS011;29430;52.924;-2.388;2023-09-19T17:00:57;4.75;;;0.50;;
43803;SDS011;29430;52.924;-2.388;2023-09-19T17:05:49;7.68;;;0.60;;
43803;SDS011;29430;52.924;-2.388;2023-09-19T17:10:41;4.70;;;0.70;;
43803;SDS011;29430;52.924;-2.388;2023-09-19T17:15:35;6.68;;;0.70;;
43803;SDS011;29430;52.924;-2.388;2023-09-19T17:20:27;5.65;;;0.50;;
43803;SDS011;29430;52.924;-2.388;2023-09-19T17:25:18;8.10;;;1.10;;
43803;SDS011;29430;52.924;-2.388;2023-09-19T17:30:12;9.02;;;0.80;;
43803;SDS011;29430;52.924;-2.388;2023-09-19T17:35:06;9.20;;;0.90;;
43803;SDS011;29430;52.924;-2.388;2023-09-19T17:39:59;5.30;;;0.60;;
43803;SDS011;29430;52.924;-2.388;2023-09-19T17:44:55;5.55;;;0.50;;
43803;SDS011;29430;52.924;-2.388;2023-09-19T17:49:47;8.25;;;0.60;;
43803;SDS011;29430;52.924;-2.388;2023-09-19T17:54:43;3.75;;;0.50;;
43803;SDS011;29430;52.924;-2.388;2023-09-19T17:59:36;6.05;;;0.50;;
43803;SDS011;29430;52.924;-2.388;2023-09-19T18:04:28;5.68;;;0.40;;
43803;SDS011;29430;52.924;-2.388;2023-09-19T18:09:20;2.33;;;0.40;;
43803;SDS011;29430;52.924;-2.388;2023-09-19T18:14:12;4.90;;;0.40;;
43803;SDS011;29430;52.924;-2.388;2023-09-19T18:19:07;4.53;;;0.90;;
43803;SDS011;29430;52.924;-2.388;2023-09-19T18:23:59;5.13;;;0.75;;
43803;SDS011;29430;52.924;-2.388;2023-09-19T18:29:05;4.90;;;0.50;;
43803;SDS011;29430;52.924;-2.388;2023-09-19T18:33:57;3.92;;;0.30;;
43803;SDS011;29430;52.924;-2.388;2023-09-19T18:38:50;3.88;;;0.60;;
43803;SDS011;29430;52.924;-2.388;2023-09-19T18:43:43;3.05;;;0.60;;
43803;SDS011;29430;52.924;-2.388;2023-09-19T18:48:36;3.67;;;0.60;;
43803;SDS011;29430;52.924;-2.388;2023-09-19T18:53:29;6.15;;;0.55;;
43803;SDS011;29430;52.924;-2.388;2023-09-19T18:58:20;5.95;;;0.50;;
43803;SDS011;29430;52.924;-2.388;2023-09-19T19:03:12;6.38;;;0.43;;
43803;SDS011;29430;52.924;-2.388;2023-09-19T19:08:06;4.97;;;0.40;;
43803;SDS011;29430;52.924;-2.388;2023-09-19T19:12:58;1.83;;;0.30;;
43803;SDS011;29430;52.924;-2.388;2023-09-19T19:17:50;5.82;;;0.40;;
43803;SDS011;29430;52.924;-2.388;2023-09-19T19:22:42;5.32;;;0.40;;
43803;SDS011;29430;52.924;-2.388;2023-09-19T19:27:35;3.83;;;0.40;;
43803;SDS011;29430;52.924;-2.388;2023-09-19T19:32:27;3.40;;;0.50;;
43803;SDS011;29430;52.924;-2.388;2023-09-19T19:37:19;2.13;;;0.40;;
43803;SDS011;29430;52.924;-2.388;2023-09-19T19:42:11;5.15;;;0.82;;
43803;SDS011;29430;52.924;-2.388;2023-09-19T19:47:04;5.35;;;0.60;;
43803;SDS011;29430;52.924;-2.388;2023-09-19T19:51:56;4.72;;;0.85;;
43803;SDS011;29430;52.924;-2.388;2023-09-19T19:56:48;7.68;;;0.63;;
43803;SDS011;29430;52.924;-2.388;2023-09-19T20:01:42;4.22;;;0.50;;
43803;SDS011;29430;52.924;-2.388;2023-09-19T20:06:34;8.85;;;0.70;;
43803;SDS011;29430;52.924;-2.388;2023-09-19T20:11:26;7.13;;;0.70;;
43803;SDS011;29430;52.924;-2.388;2023-09-19T20:16:20;4.50;;;0.63;;
43803;SDS011;29430;52.924;-2.388;2023-09-19T20:21:12;4.90;;;0.50;;
43803;SDS011;29430;52.924;-2.388;2023-09-19T20:26:05;6.85;;;0.50;;
43803;SDS011;29430;52.924;-2.388;2023-09-19T20:30:58;5.38;;;0.60;;
43803;SDS011;29430;52.924;-2.388;2023-09-19T20:35:50;3.85;;;0.57;;
43803;SDS011;29430;52.924;-2.388;2023-09-19T20:40:43;4.10;;;0.70;;
43803;SDS011;29430;52.924;-2.388;2023-09-19T20:45:35;6.82;;;0.50;;
43803;SDS011;29430;52.924;-2.388;2023-09-19T20:50:33;5.65;;;0.40;;
43803;SDS011;29430;52.924;-2.388;2023-09-19T20:55:25;4.65;;;0.40;;
43803;SDS011;29430;52.924;-2.388;2023-09-19T21:00:17;2.42;;;0.40;;
43803;SDS011;29430;52.924;-2.388;2023-09-19T21:05:11;3.35;;;0.40;;
43803;SDS011;29430;52.924;-2.388;2023-09-19T21:10:04;3.40;;;0.30;;
43803;SDS011;29430;52.924;-2.388;2023-09-19T21:14:56;4.38;;;0.38;;
43803;SDS011;29430;52.924;-2.388;2023-09-19T21:19:51;4.00;;;0.50;;
43803;SDS011;29430;52.924;-2.388;2023-09-19T21:24:43;4.55;;;0.40;;
43803;SDS011;29430;52.924;-2.388;2023-09-19T21:29:38;2.38;;;0.32;;
43803;SDS011;29430;52.924;-2.388;2023-09-19T21:34:30;6.15;;;0.80;;
43803;SDS011;29430;52.924;-2.388;2023-09-19T21:39:22;4.55;;;0.50;;
43803;SDS011;29430;52.924;-2.388;2023-09-19T21:44:14;2.72;;;0.40;;
43803;SDS011;29430;52.924;-2.388;2023-09-19T21:49:05;2.72;;;0.40;;
43803;SDS011;29430;52.924;-2.388;2023-09-19T21:53:58;6.70;;;0.60;;
43803;SDS011;29430;52.924;-2.388;2023-09-19T21:58:52;8.82;;;0.70;;
43803;SDS011;29430;52.924;-2.388;2023-09-19T22:03:45;2.80;;;0.40;;
43803;SDS011;29430;52.924;-2.388;2023-09-19T22:08:37;2.30;;;0.30;;
43803;SDS011;29430;52.924;-2.388;2023-09-19T22:13:30;3.67;;;0.65;;
43803;SDS011;29430;52.924;-2.388;2023-09-19T22:18:22;7.65;;;0.45;;
43803;SDS011;29430;52.924;-2.388;2023-09-19T22:23:14;4.72;;;0.50;;
43803;SDS011;29430;52.924;-2.388;2023-09-19T22:28:07;3.75;;;0.50;;
43803;SDS011;29430;52.924;-2.388;2023-09-19T22:33:02;4.35;;;0.55;;
43803;SDS011;29430;52.924;-2.388;2023-09-19T22:37:55;3.58;;;0.50;;
43803;SDS011;29430;52.924;-2.388;2023-09-19T22:43:04;4.22;;;0.40;;
43803;SDS011;29430;52.924;-2.388;2023-09-19T22:47:58;4.13;;;0.50;;
43803;SDS011;29430;52.924;-2.388;2023-09-19T22:52:50;4.68;;;0.30;;
43803;SDS011;29430;52.924;-2.388;2023-09-19T22:57:45;3.50;;;0.30;;
43803;SDS011;29430;52.924;-2.388;2023-09-19T23:02:37;3.28;;;0.30;;
43803;SDS011;29430;52.924;-2.388;2023-09-19T23:07:30;1.50;;;0.20;;
43803;SDS011;29430;52.924;-2.388;2023-09-19T23:12:22;1.95;;;0.30;;
43803;SDS011;29430;52.924;-2.388;2023-09-19T23:17:15;4.32;;;0.20;;
43803;SDS011;29430;52.924;-2.388;2023-09-19T23:22:12;1.13;;;0.20;;
43803;SDS011;29430;52.924;-2.388;2023-09-19T23:27:11;2.13;;;0.20;;
43803;SDS011;29430;52.924;-2.388;2023-09-19T23:32:10;1.90;;;0.20;;
43803;SDS011;29430;52.924;-2.388;2023-09-19T23:37:02;2.65;;;0.28;;
43803;SDS011;29430;52.924;-2.388;2023-09-19T23:41:56;1.30;;;0.20;;
43803;SDS011;29430;52.924;-2.388;2023-09-19T23:46:48;1.67;;;0.10;;
43803;SDS011;29430;52.924;-2.388;2023-09-19T23:51:47;0.73;;;0.10;;
43803;SDS011;29430;52.924;-2.388;2023-09-19T23:56:39;0.80;;;0.10;;
